Latest Weather Observations for Arlington Reef
Issued at 9:13 pm EST Saturday 9 May 2026 (issued every 10 minutes, with the page automatically refreshed every 10 minutes)
| Station Details | ID: 200879 | Name: ARLINGTON REEF | Lat: -16.72 | Lon: 146.11 | Height: 0.0 m |
| Date/Time EST |
Temp °C |
App Temp °C |
Dew Point °C |
Rel Hum % |
Delta-T °C |
Wind | Press QNH hPa |
Press MSL hPa |
Rain since 9am mm |
|||||
|---|---|---|---|---|---|---|---|---|---|---|---|---|---|---|
| Dir | Spd km/h |
Gust km/h |
Spd kts |
Gust kts |
||||||||||
| 09/09:00pm | - | - | - | - | - | - | 46 | 56 | 25 | 30 | 1016.1 | 1016.1 | - | |
| 09/08:30pm | - | - | - | - | - | - | 48 | 54 | 26 | 29 | 1016.2 | 1016.2 | - | |
| 09/08:00pm | - | - | - | - | - | - | 48 | 56 | 26 | 30 | 1016.0 | 1016.0 | - | |
| 09/07:30pm | - | - | - | - | - | - | 48 | 57 | 26 | 31 | 1015.6 | 1015.6 | - | |
| 09/07:00pm | - | - | - | - | - | - | 43 | 52 | 23 | 28 | 1015.5 | 1015.5 | - | |
| 09/06:30pm | - | - | - | - | - | - | 44 | 56 | 24 | 30 | 1015.2 | 1015.2 | - | |
| 09/06:00pm | - | - | - | - | - | - | 44 | 57 | 24 | 31 | 1015.0 | 1015.0 | - | |
| 09/05:30pm | - | - | - | - | - | - | 50 | 59 | 27 | 32 | 1014.8 | 1014.8 | - | |
| 09/05:00pm | - | - | - | - | - | - | 48 | 57 | 26 | 31 | 1014.4 | 1014.4 | - | |
| 09/04:30pm | - | - | - | - | - | - | 50 | 59 | 27 | 32 | 1014.1 | 1014.1 | - | |
| 09/04:00pm | - | - | - | - | - | - | 46 | 56 | 25 | 30 | 1013.9 | 1013.9 | - | |
| 09/03:30pm | - | - | - | - | - | - | 46 | 57 | 25 | 31 | 1013.8 | 1013.8 | - | |
| 09/03:00pm | - | - | - | - | - | - | 48 | 57 | 26 | 31 | 1013.7 | 1013.7 | - | |
| 09/02:30pm | - | - | - | - | - | - | 48 | 59 | 26 | 32 | 1013.6 | 1013.6 | - | |
| 09/02:00pm | - | - | - | - | - | - | 44 | 56 | 24 | 30 | 1013.9 | 1013.9 | - | |
| 09/01:30pm | - | - | - | - | - | - | 50 | 57 | 27 | 31 | 1014.2 | 1014.2 | - | |
| 09/01:00pm | - | - | - | - | - | - | 50 | 59 | 27 | 32 | 1014.5 | 1014.5 | - | |
| 09/12:30pm | - | - | - | - | - | - | 48 | 57 | 26 | 31 | 1014.7 | 1014.7 | - | |
| 09/12:00pm | - | - | - | - | - | - | 48 | 57 | 26 | 31 | 1015.0 | 1015.0 | - | |
| 09/11:30am | - | - | - | - | - | - | 48 | 57 | 26 | 31 | 1015.4 | 1015.4 | - | |
| 09/11:00am | - | - | - | - | - | - | 48 | 59 | 26 | 32 | 1015.6 | 1015.6 | - | |
| 09/10:30am | - | - | - | - | - | - | 48 | 57 | 26 | 31 | 1016.1 | 1016.1 | - | |
| 09/10:00am | - | - | - | - | - | - | 48 | 56 | 26 | 30 | 1016.1 | 1016.1 | - | |
| 09/09:30am | - | - | - | - | - | - | 46 | 56 | 25 | 30 | 1016.0 | 1016.0 | - | |
| 09/09:00am | - | - | - | - | - | - | 48 | 56 | 26 | 30 | 1015.9 | 1015.9 | - | |
| 09/08:30am | - | - | - | - | - | - | 48 | 57 | 26 | 31 | 1015.8 | 1015.8 | - | |
| 09/08:00am | - | - | - | - | - | - | 46 | 56 | 25 | 30 | 1015.4 | 1015.4 | - | |
| 09/07:30am | - | - | - | - | - | - | 44 | 57 | 24 | 31 | 1014.9 | 1014.9 | - | |
| 09/07:00am | - | - | - | - | - | - | 46 | 52 | 25 | 28 | 1014.5 | 1014.5 | - | |
| 09/06:30am | - | - | - | - | - | - | 44 | 52 | 24 | 28 | 1014.3 | 1014.3 | - | |
| 09/06:00am | - | - | - | - | - | - | 44 | 52 | 24 | 28 | 1013.9 | 1013.9 | - | |
| 09/05:30am | - | - | - | - | - | - | 43 | 52 | 23 | 28 | 1013.7 | 1013.7 | - | |
| 09/05:00am | - | - | - | - | - | - | 43 | 48 | 23 | 26 | 1013.5 | 1013.5 | - | |
| 09/04:30am | - | - | - | - | - | - | 43 | 50 | 23 | 27 | 1013.5 | 1013.5 | - | |
| 09/04:00am | - | - | - | - | - | - | 43 | 50 | 23 | 27 | 1013.4 | 1013.4 | - | |
| 09/03:30am | - | - | - | - | - | - | 41 | 48 | 22 | 26 | 1013.4 | 1013.4 | - | |
| 09/03:00am | - | - | - | - | - | - | 39 | 46 | 21 | 25 | 1013.6 | 1013.6 | - | |
| 09/02:30am | - | - | - | - | - | - | 41 | 50 | 22 | 27 | 1013.6 | 1013.6 | - | |
| 09/02:00am | - | - | - | - | - | - | 41 | 48 | 22 | 26 | 1013.8 | 1013.8 | - | |
| 09/01:30am | - | - | - | - | - | - | 41 | 50 | 22 | 27 | 1013.9 | 1013.9 | - | |
| 09/01:00am | - | - | - | - | - | - | 43 | 52 | 23 | 28 | 1014.2 | 1014.2 | - | |
| 09/12:30am | - | - | - | - | - | - | 41 | 52 | 22 | 28 | 1014.6 | 1014.6 | - | |
| 09/12:00am | - | - | - | - | - | - | 43 | 50 | 23 | 27 | 1014.9 | 1014.9 | - | |
| Date/Time EST |
Temp °C |
App Temp °C |
Dew Point °C |
Rel Hum % |
Delta-T °C |
Wind | Press QNH hPa |
Press MSL hPa |
Rain since 9am mm |
|||||
|---|---|---|---|---|---|---|---|---|---|---|---|---|---|---|
| Dir | Spd km/h |
Gust km/h |
Spd kts |
Gust kts |
||||||||||
| 08/11:30pm | - | - | - | - | - | - | 46 | 56 | 25 | 30 | 1014.9 | 1014.9 | - | |
| 08/11:00pm | - | - | - | - | - | - | 44 | 54 | 24 | 29 | 1014.8 | 1014.8 | - | |
| 08/10:30pm | - | - | - | - | - | - | 43 | 50 | 23 | 27 | 1015.1 | 1015.1 | - | |
| 08/10:00pm | - | - | - | - | - | - | 44 | 52 | 24 | 28 | 1015.2 | 1015.2 | - | |
| 08/09:30pm | - | - | - | - | - | - | 43 | 52 | 23 | 28 | 1015.3 | 1015.3 | - | |
| 08/09:00pm | - | - | - | - | - | - | 43 | 52 | 23 | 28 | 1015.4 | 1015.4 | - | |
| 08/08:30pm | - | - | - | - | - | - | 41 | 50 | 22 | 27 | 1015.3 | 1015.3 | - | |
| 08/08:00pm | - | - | - | - | - | - | 43 | 52 | 23 | 28 | 1014.8 | 1014.8 | - | |
| 08/07:30pm | - | - | - | - | - | - | 44 | 50 | 24 | 27 | 1014.5 | 1014.5 | - | |
| 08/07:00pm | - | - | - | - | - | - | 43 | 52 | 23 | 28 | 1014.3 | 1014.3 | - | |
| 08/06:30pm | - | - | - | - | - | - | 43 | 48 | 23 | 26 | 1014.0 | 1014.0 | - | |
| 08/06:00pm | - | - | - | - | - | - | 43 | 50 | 23 | 27 | 1013.7 | 1013.7 | - | |
| 08/05:30pm | - | - | - | - | - | - | 46 | 54 | 25 | 29 | 1013.3 | 1013.3 | - | |
| 08/05:00pm | - | - | - | - | - | - | 43 | 52 | 23 | 28 | 1012.9 | 1012.9 | - | |
| 08/04:30pm | - | - | - | - | - | - | 41 | 46 | 22 | 25 | 1012.8 | 1012.8 | - | |
| 08/04:00pm | - | - | - | - | - | - | 41 | 48 | 22 | 26 | 1012.6 | 1012.6 | - | |
| 08/03:30pm | - | - | - | - | - | - | 43 | 50 | 23 | 27 | 1012.4 | 1012.4 | - | |
| 08/03:00pm | - | - | - | - | - | - | 41 | 46 | 22 | 25 | 1012.3 | 1012.3 | - | |
| 08/02:30pm | - | - | - | - | - | - | 41 | 50 | 22 | 27 | 1013.0 | 1013.0 | - | |
| 08/02:00pm | - | - | - | - | - | - | 39 | 46 | 21 | 25 | 1012.9 | 1012.9 | - | |
| 08/01:30pm | - | - | - | - | - | - | 43 | 50 | 23 | 27 | 1013.1 | 1013.1 | - | |
| 08/01:00pm | - | - | - | - | - | - | 43 | 48 | 23 | 26 | 1013.6 | 1013.6 | - | |
| 08/12:30pm | - | - | - | - | - | - | 41 | 48 | 22 | 26 | 1014.0 | 1014.0 | - | |
| 08/12:00pm | - | - | - | - | - | - | 41 | 48 | 22 | 26 | 1014.3 | 1014.3 | - | |
| 08/11:30am | - | - | - | - | - | - | 41 | 50 | 22 | 27 | 1014.7 | 1014.7 | - | |
| 08/11:00am | - | - | - | - | - | - | 41 | 48 | 22 | 26 | 1015.0 | 1015.0 | - | |
| 08/10:30am | - | - | - | - | - | - | 41 | 46 | 22 | 25 | 1015.2 | 1015.2 | - | |
| 08/10:00am | - | - | - | - | - | - | 41 | 46 | 22 | 25 | 1015.3 | 1015.3 | - | |
| 08/09:30am | - | - | - | - | - | - | 41 | 48 | 22 | 26 | 1015.2 | 1015.2 | - | |
| 08/09:00am | - | - | - | - | - | - | 39 | 46 | 21 | 25 | 1015.1 | 1015.1 | - | |
| 08/08:30am | - | - | - | - | - | - | 41 | 48 | 22 | 26 | 1014.6 | 1014.6 | - | |
| 08/08:00am | - | - | - | - | - | - | 39 | 48 | 21 | 26 | 1014.5 | 1014.5 | - | |
| 08/07:30am | - | - | - | - | - | - | 41 | 44 | 22 | 24 | 1014.0 | 1014.0 | - | |
| 08/07:00am | - | - | - | - | - | - | 41 | 50 | 22 | 27 | 1013.5 | 1013.5 | - | |
| 08/06:30am | - | - | - | - | - | - | 39 | 46 | 21 | 25 | 1013.4 | 1013.4 | - | |
| 08/06:00am | - | - | - | - | - | - | 33 | 43 | 18 | 23 | 1013.3 | 1013.3 | - | |
| 08/05:30am | - | - | - | - | - | - | 35 | 43 | 19 | 23 | 1012.9 | 1012.9 | - | |
| 08/05:00am | - | - | - | - | - | - | 35 | 41 | 19 | 22 | 1012.8 | 1012.8 | - | |
| 08/04:30am | - | - | - | - | - | - | 32 | 37 | 17 | 20 | 1012.6 | 1012.6 | - | |
| 08/04:00am | - | - | - | - | - | - | 33 | 39 | 18 | 21 | 1012.5 | 1012.5 | - | |
| 08/03:30am | - | - | - | - | - | - | 33 | 39 | 18 | 21 | 1012.4 | 1012.4 | - | |
| 08/03:00am | - | - | - | - | - | - | 33 | 41 | 18 | 22 | 1012.5 | 1012.5 | - | |
| 08/02:30am | - | - | - | - | - | - | 32 | 37 | 17 | 20 | 1012.7 | 1012.7 | - | |
| 08/02:00am | - | - | - | - | - | - | 32 | 35 | 17 | 19 | 1012.9 | 1012.9 | - | |
| 08/01:30am | - | - | - | - | - | - | 32 | 35 | 17 | 19 | 1013.1 | 1013.1 | - | |
| 08/01:00am | - | - | - | - | - | - | 32 | 37 | 17 | 20 | 1013.4 | 1013.4 | - | |
| 08/12:30am | - | - | - | - | - | - | 30 | 35 | 16 | 19 | 1013.7 | 1013.7 | - | |
| 08/12:00am | - | - | - | - | - | - | 32 | 33 | 17 | 18 | 1013.8 | 1013.8 | - | |
| Date/Time EST |
Temp °C |
App Temp °C |
Dew Point °C |
Rel Hum % |
Delta-T °C |
Wind | Press QNH hPa |
Press MSL hPa |
Rain since 9am mm |
|||||
|---|---|---|---|---|---|---|---|---|---|---|---|---|---|---|
| Dir | Spd km/h |
Gust km/h |
Spd kts |
Gust kts |
||||||||||
| 07/11:30pm | - | - | - | - | - | - | 30 | 33 | 16 | 18 | 1013.9 | 1013.9 | - | |
| 07/11:00pm | - | - | - | - | - | - | 30 | 35 | 16 | 19 | 1014.0 | 1014.0 | - | |
| 07/10:30pm | - | - | - | - | - | - | 28 | 32 | 15 | 17 | 1014.3 | 1014.3 | - | |
| 07/10:00pm | - | - | - | - | - | - | 32 | 35 | 17 | 19 | 1014.5 | 1014.5 | - | |
| 07/09:30pm | - | - | - | - | - | - | 30 | 35 | 16 | 19 | 1014.7 | 1014.7 | - | |
| 07/09:00pm | - | - | - | - | - | - | 32 | 35 | 17 | 19 | 1014.8 | 1014.8 | - | |
| 07/08:30pm | - | - | - | - | - | - | 33 | 39 | 18 | 21 | 1014.7 | 1014.7 | - | |
| 07/08:00pm | - | - | - | - | - | - | 33 | 39 | 18 | 21 | 1014.4 | 1014.4 | - | |
| 07/07:30pm | - | - | - | - | - | - | 30 | 37 | 16 | 20 | 1014.0 | 1014.0 | - | |
| 07/07:00pm | - | - | - | - | - | - | 39 | 43 | 21 | 23 | 1013.6 | 1013.6 | - | |
| 07/06:30pm | - | - | - | - | - | - | 37 | 44 | 20 | 24 | 1013.2 | 1013.2 | - | |
| 07/06:00pm | - | - | - | - | - | - | 33 | 39 | 18 | 21 | 1013.1 | 1013.1 | - | |
| 07/05:30pm | - | - | - | - | - | - | 33 | 41 | 18 | 22 | 1012.6 | 1012.6 | - | |
| 07/05:00pm | - | - | - | - | - | - | 33 | 41 | 18 | 22 | 1012.3 | 1012.3 | - | |
| 07/04:30pm | - | - | - | - | - | - | 39 | 44 | 21 | 24 | 1011.9 | 1011.9 | - | |
| 07/04:00pm | - | - | - | - | - | - | 33 | 41 | 18 | 22 | 1011.7 | 1011.7 | - | |
| 07/03:30pm | - | - | - | - | - | - | 33 | 39 | 18 | 21 | 1011.8 | 1011.8 | - | |
| 07/03:00pm | - | - | - | - | - | - | 32 | 35 | 17 | 19 | 1011.8 | 1011.8 | - | |
| 07/02:30pm | - | - | - | - | - | - | 30 | 35 | 16 | 19 | 1011.9 | 1011.9 | - | |
| 07/02:00pm | - | - | - | - | - | - | 28 | 35 | 15 | 19 | 1012.1 | 1012.1 | - | |
| 07/01:30pm | - | - | - | - | - | - | 32 | 37 | 17 | 20 | 1012.1 | 1012.1 | - | |
| 07/01:00pm | - | - | - | - | - | - | 30 | 33 | 16 | 18 | 1012.4 | 1012.4 | - | |
| 07/12:30pm | - | - | - | - | - | - | 28 | 33 | 15 | 18 | 1012.7 | 1012.7 | - | |
| 07/12:00pm | - | - | - | - | - | - | 28 | 32 | 15 | 17 | 1013.1 | 1013.1 | - | |
| 07/11:30am | - | - | - | - | - | - | 26 | 32 | 14 | 17 | 1013.3 | 1013.3 | - | |
| 07/11:00am | - | - | - | - | - | - | 28 | 32 | 15 | 17 | 1013.8 | 1013.8 | - | |
| 07/10:30am | - | - | - | - | - | - | 28 | 32 | 15 | 17 | 1014.1 | 1014.1 | - | |
| 07/10:00am | - | - | - | - | - | - | 28 | 33 | 15 | 18 | 1014.3 | 1014.3 | - | |
| 07/09:30am | - | - | - | - | - | - | 30 | 33 | 16 | 18 | 1014.1 | 1014.1 | - | |
| 07/09:00am | - | - | - | - | - | - | 30 | 35 | 16 | 19 | 1013.9 | 1013.9 | - | |
| 07/08:30am | - | - | - | - | - | - | 26 | 33 | 14 | 18 | 1013.7 | 1013.7 | - | |
| 07/08:00am | - | - | - | - | - | - | 30 | 33 | 16 | 18 | 1013.6 | 1013.6 | - | |
| 07/07:30am | - | - | - | - | - | - | 28 | 33 | 15 | 18 | 1013.3 | 1013.3 | - | |
| 07/07:00am | - | - | - | - | - | - | 28 | 33 | 15 | 18 | 1013.0 | 1013.0 | - | |
| 07/06:30am | - | - | - | - | - | - | 24 | 30 | 13 | 16 | 1012.7 | 1012.7 | - | |
| 07/06:00am | - | - | - | - | - | - | 24 | 30 | 13 | 16 | 1012.4 | 1012.4 | - | |
| 07/05:30am | - | - | - | - | - | - | 24 | 28 | 13 | 15 | 1012.1 | 1012.1 | - | |
| 07/05:00am | - | - | - | - | - | - | 22 | 28 | 12 | 15 | 1012.1 | 1012.1 | - | |
| 07/04:30am | - | - | - | - | - | - | 26 | 30 | 14 | 16 | 1012.1 | 1012.1 | - | |
| 07/04:00am | - | - | - | - | - | - | 26 | 30 | 14 | 16 | 1012.2 | 1012.2 | - | |
| 07/03:30am | - | - | - | - | - | - | 28 | 32 | 15 | 17 | 1012.2 | 1012.2 | - | |
| 07/03:00am | - | - | - | - | - | - | 26 | 32 | 14 | 17 | 1012.3 | 1012.3 | - | |
| 07/02:30am | - | - | - | - | - | - | 26 | 28 | 14 | 15 | 1012.6 | 1012.6 | - | |
| 07/02:00am | - | - | - | - | - | - | 26 | 30 | 14 | 16 | 1012.8 | 1012.8 | - | |
| 07/01:30am | - | - | - | - | - | - | 24 | 28 | 13 | 15 | 1013.0 | 1013.0 | - | |
| 07/01:00am | - | - | - | - | - | - | 28 | 33 | 15 | 18 | 1013.1 | 1013.1 | - | |
| 07/12:30am | - | - | - | - | - | - | 28 | 30 | 15 | 16 | 1013.3 | 1013.3 | - | |
| 07/12:00am | - | - | - | - | - | - | 30 | 33 | 16 | 18 | 1013.6 | 1013.6 | - | |
| Date/Time EST |
Temp °C |
App Temp °C |
Dew Point °C |
Rel Hum % |
Delta-T °C |
Wind | Press QNH hPa |
Press MSL hPa |
Rain since 9am mm |
||||
|---|---|---|---|---|---|---|---|---|---|---|---|---|---|
| Dir | Spd km/h |
Gust km/h |
Spd kts |
Gust kts |
|||||||||
| 06/11:30pm | - | - | - | - | - | - | 28 | 33 | 15 | 18 | 1013.6 | 1013.6 | - |
| 06/11:00pm | - | - | - | - | - | - | 28 | 32 | 15 | 17 | 1013.8 | 1013.8 | - |
| 06/10:30pm | - | - | - | - | - | - | 30 | 35 | 16 | 19 | 1013.9 | 1013.9 | - |
| 06/10:00pm | - | - | - | - | - | - | 28 | 33 | 15 | 18 | 1014.0 | 1014.0 | - |
| 06/09:30pm | - | - | - | - | - | - | 28 | 32 | 15 | 17 | 1014.1 | 1014.1 | - |
Other formats
Comma delimited format used in spreadsheet applications
http://www.bom.gov.au/fwo/IDQ60801/IDQ60801.94284.axf
JavaScript Object Notation format (JSON) in row-major order
http://www.bom.gov.au/fwo/IDQ60801/IDQ60801.94284.json
Data quality
Most of these data are generated automatically and are frequently updated. Quality checks on data are not normally performed. It is possible for incorrect values to appear. Refer to information at About Latest Weather Observations and please check the disclaimer before using these data.
